createdAt,value
2018-06-21T00:00:39.217Z,21.96
2018-06-21T00:01:58.898Z,21.99
2018-06-21T00:03:40.102Z,22.04
2018-06-21T00:04:39.695Z,21.97
2018-06-21T00:06:53.708Z,22.04
2018-06-21T00:08:08.148Z,22.14
2018-06-21T00:10:05.643Z,22.07
2018-06-21T00:11:08.112Z,22.04
2018-06-21T00:13:09.999Z,22.02
2018-06-21T00:14:09.926Z,22.09
2018-06-21T00:16:37.875Z,22.11
2018-06-21T00:17:17.868Z,22.07
2018-06-21T00:19:21.522Z,22.12
2018-06-21T00:20:22.373Z,22.14
2018-06-21T00:22:27.843Z,22.23
2018-06-21T00:23:27.771Z,22.12
2018-06-21T00:25:29.627Z,22.20
2018-06-21T00:26:29.040Z,22.11
2018-06-21T00:31:10.327Z,22.16
2018-06-21T00:32:27.316Z,22.09
2018-06-21T00:34:10.171Z,21.93
2018-06-21T00:36:29.762Z,21.96
2018-06-21T00:37:29.809Z,21.89
2018-06-21T00:39:40.868Z,21.80
2018-06-21T00:42:41.921Z,21.71
2018-06-21T00:43:41.536Z,21.70
2018-06-21T00:46:22.055Z,21.62
2018-06-21T00:49:23.854Z,21.61
2018-06-21T00:50:05.281Z,21.61
2018-06-21T00:52:14.793Z,21.62
2018-06-21T00:55:32.743Z,21.45
2018-06-21T00:56:03.427Z,21.43
2018-06-21T00:58:08.460Z,21.45
2018-06-21T00:59:35.823Z,21.41
2018-06-21T01:01:48.098Z,21.37
2018-06-21T01:02:30.088Z,21.38
2018-06-21T01:05:20.712Z,21.23
2018-06-21T01:05:51.483Z,21.27
2018-06-21T01:09:15.778Z,21.12
2018-06-21T01:10:11.792Z,21.11
2018-06-21T01:13:07.822Z,21.11
2018-06-21T01:13:17.194Z,20.98
2018-06-21T01:15:38.813Z,20.98
2018-06-21T01:19:04.409Z,20.96
2018-06-21T01:19:32.999Z,20.90
2018-06-21T01:21:52.122Z,20.93
2018-06-21T01:23:16.678Z,20.81
2018-06-21T01:26:58.197Z,20.76
2018-06-21T01:29:13.668Z,20.67
2018-06-21T01:30:41.169Z,20.61
2018-06-21T01:32:12.148Z,20.60
2018-06-21T01:36:11.562Z,20.49
2018-06-21T01:37:10.465Z,20.40
2018-06-21T02:15:25.112Z,19.97
2018-06-21T02:19:54.998Z,20.02
2018-06-21T02:20:54.672Z,19.97
2018-06-21T02:28:53.166Z,19.87
2018-06-21T02:32:46.989Z,19.72
2018-06-21T02:33:56.301Z,19.74
2018-06-21T02:35:52.620Z,19.74
2018-06-21T02:42:22.862Z,19.60
2018-06-21T02:42:27.254Z,19.49
2018-06-21T02:44:58.078Z,19.40
2018-06-21T02:46:01.186Z,19.38
2018-06-21T02:48:15.964Z,19.47
2018-06-21T02:49:35.516Z,19.38
2018-06-21T02:51:18.729Z,19.27
2018-06-21T02:52:16.717Z,19.32
2018-06-21T02:54:51.827Z,19.19
2018-06-21T02:55:31.291Z,19.15
2018-06-21T02:58:08.643Z,19.15
2018-06-21T02:59:09.243Z,19.17
2018-06-21T03:01:09.879Z,19.15
2018-06-21T03:02:18.646Z,19.09
2018-06-21T03:04:21.364Z,18.99
2018-06-21T03:04:58.898Z,19.00
2018-06-21T03:07:27.659Z,18.90
2018-06-21T03:08:13.549Z,18.94
2018-06-21T03:10:22.200Z,18.97
2018-06-21T03:12:44.704Z,18.97
2018-06-21T03:13:42.074Z,18.86
2018-06-21T03:15:56.519Z,18.87
2018-06-21T03:16:57.034Z,18.93
2018-06-21T03:18:57.693Z,18.89
2018-06-21T03:20:16.234Z,18.89
2018-06-21T03:22:25.161Z,18.75
2018-06-21T03:24:50.862Z,18.79
2018-06-21T03:26:01.441Z,18.81
2018-06-21T03:27:49.990Z,18.71
2018-06-21T03:28:46.361Z,18.78
2018-06-21T03:31:02.797Z,18.78
2018-06-21T03:31:47.664Z,18.82
2018-06-21T03:33:51.239Z,18.81
2018-06-21T03:34:48.101Z,18.87
2018-06-21T03:37:08.917Z,18.84
2018-06-21T03:37:54.119Z,18.84
2018-06-21T03:39:57.734Z,18.87
2018-06-21T03:41:17.325Z,18.87
2018-06-21T03:43:07.027Z,18.89
2018-06-21T03:45:28.003Z,18.86
2018-06-21T03:46:26.408Z,18.82
2018-06-21T03:48:33.056Z,18.86
2018-06-21T03:49:33.067Z,18.76
2018-06-21T03:51:40.587Z,18.82
2018-06-21T03:55:18.957Z,18.81
2018-06-21T03:56:16.858Z,18.76
2018-06-21T03:58:07.927Z,18.74
2018-06-21T03:59:07.738Z,18.86
2018-06-21T04:01:26.167Z,18.91
2018-06-21T04:03:48.306Z,19.06
2018-06-21T04:04:47.372Z,18.93
2018-06-21T04:06:47.885Z,19.13
2018-06-21T04:07:47.791Z,19.10
2018-06-21T04:09:58.212Z,19.24
2018-06-21T04:10:55.549Z,19.23
2018-06-21T04:13:18.832Z,19.32
2018-06-21T04:13:57.118Z,19.32
2018-06-21T04:15:59.565Z,19.32
2018-06-21T04:16:59.639Z,19.40
2018-06-21T04:19:04.671Z,19.50
2018-06-21T04:20:19.741Z,19.45
2018-06-21T04:22:18.068Z,19.65
2018-06-21T04:23:16.647Z,19.78
2018-06-21T04:27:14.504Z,19.74
2018-06-21T04:28:48.906Z,19.74
2018-06-21T04:30:52.327Z,19.89
2018-06-21T04:32:12.853Z,19.87
2018-06-21T04:33:53.659Z,19.92
2018-06-21T04:35:16.814Z,19.90
2018-06-21T04:36:52.209Z,19.93
2018-06-21T04:37:51.172Z,20.00
2018-06-21T04:39:53.831Z,20.08
2018-06-21T04:40:55.255Z,20.11
2018-06-21T04:43:00.130Z,20.30
2018-06-21T04:43:58.951Z,20.38
2018-06-21T04:45:59.909Z,20.37
2018-06-21T04:47:14.650Z,20.27
2018-06-21T04:49:05.760Z,20.12
2018-06-21T04:50:00.307Z,20.19
2018-06-21T04:52:21.261Z,20.18
2018-06-21T04:53:19.707Z,20.08
2018-06-21T04:55:22.046Z,20.12
2018-06-21T04:56:35.954Z,20.08
2018-06-21T04:58:21.589Z,20.08
2018-06-21T04:59:21.421Z,20.20
2018-06-21T05:01:22.857Z,20.11
2018-06-21T05:02:21.776Z,20.15
2018-06-21T05:04:23.798Z,20.16
2018-06-21T05:05:22.226Z,20.15
2018-06-21T05:07:23.381Z,20.12
2018-06-21T05:08:25.238Z,20.08
2018-06-21T05:10:23.204Z,20.11
2018-06-21T05:11:23.642Z,20.10
2018-06-21T05:13:25.120Z,20.07
2018-06-21T05:14:24.799Z,20.01
2018-06-21T05:16:24.283Z,20.04
2018-06-21T05:17:23.294Z,20.10
2018-06-21T05:19:24.229Z,20.48
2018-06-21T05:20:24.221Z,20.49
2018-06-21T05:22:25.735Z,20.42
2018-06-21T05:23:25.677Z,20.40
2018-06-21T05:25:29.153Z,20.40
2018-06-21T05:26:29.184Z,20.49
2018-06-21T05:28:31.179Z,20.32
2018-06-21T05:29:29.616Z,20.53
2018-06-21T05:31:30.131Z,20.67
2018-06-21T05:32:30.067Z,20.76
2018-06-21T05:34:31.034Z,20.56
2018-06-21T05:35:30.570Z,20.64
2018-06-21T05:37:33.561Z,20.37
2018-06-21T05:38:28.552Z,20.40
2018-06-21T05:40:29.469Z,20.42
2018-06-21T05:41:28.968Z,20.46
2018-06-21T05:43:27.887Z,20.56
2018-06-21T05:44:27.067Z,20.54
2018-06-21T05:46:27.640Z,20.60
2018-06-21T05:47:27.498Z,20.49
2018-06-21T05:49:26.488Z,20.66
2018-06-21T05:50:25.469Z,20.60
2018-06-21T05:52:24.935Z,20.58
2018-06-21T05:53:23.462Z,20.51
2018-06-21T05:55:23.885Z,20.40
2018-06-21T05:56:21.404Z,20.22
2018-06-21T05:58:19.869Z,20.12
2018-06-21T05:59:19.843Z,20.10
2018-06-21T06:01:16.385Z,20.12
2018-06-21T06:02:16.279Z,20.19
2018-06-21T06:04:14.385Z,20.07
2018-06-21T06:05:14.383Z,20.05
2018-06-21T06:07:12.853Z,20.00
2018-06-21T06:08:13.370Z,19.95
2018-06-21T06:10:13.997Z,19.98
2018-06-21T06:11:13.053Z,19.90
2018-06-21T06:13:12.469Z,19.95
2018-06-21T06:14:11.195Z,19.98
2018-06-21T06:16:09.612Z,20.01
2018-06-21T06:17:09.229Z,19.98
2018-06-21T06:19:07.139Z,19.82
2018-06-21T06:20:07.610Z,19.71
2018-06-21T06:22:06.529Z,19.61
2018-06-21T06:23:05.530Z,19.50
2018-06-21T06:25:04.003Z,19.27
2018-06-21T06:26:02.961Z,19.20
2018-06-21T06:28:01.102Z,19.17
2018-06-21T06:29:01.918Z,19.12
2018-06-21T06:31:02.150Z,19.09
2018-06-21T06:32:01.507Z,19.10
2018-06-21T06:33:59.496Z,19.10
2018-06-21T06:34:58.503Z,19.10
2018-06-21T06:36:55.948Z,19.06
2018-06-21T06:37:56.970Z,19.06
2018-06-21T06:39:53.593Z,19.09
2018-06-21T06:40:53.580Z,19.16
2018-06-21T06:42:51.504Z,19.12
2018-06-21T06:43:52.167Z,19.02
2018-06-21T06:45:52.010Z,18.97
2018-06-21T06:46:52.034Z,18.94
2018-06-21T06:48:50.959Z,19.00
2018-06-21T06:49:49.954Z,19.06
2018-06-21T06:51:47.945Z,19.15
2018-06-21T06:52:47.931Z,19.06
2018-06-21T06:54:47.487Z,19.02
2018-06-21T06:55:46.044Z,19.13
2018-06-21T06:57:45.039Z,19.13
2018-06-21T06:58:44.054Z,19.15
2018-06-21T07:00:40.480Z,19.19
2018-06-21T07:01:40.024Z,19.13
2018-06-21T07:03:35.918Z,19.13
2018-06-21T07:04:35.926Z,19.27
2018-06-21T07:06:33.867Z,19.17
2018-06-21T07:07:33.854Z,19.16
2018-06-21T07:09:32.824Z,19.09
2018-06-21T07:10:31.977Z,19.16
2018-06-21T07:12:30.484Z,19.24
2018-06-21T07:13:30.128Z,19.25
2018-06-21T07:15:26.068Z,19.27
2018-06-21T07:16:26.079Z,19.28
2018-06-21T07:18:24.550Z,19.31
2018-06-21T07:19:24.033Z,19.32
2018-06-21T07:21:23.481Z,19.28
2018-06-21T07:22:23.021Z,19.34
2018-06-21T07:24:24.136Z,19.28
2018-06-21T07:25:22.613Z,19.27
2018-06-21T07:27:22.561Z,19.32
2018-06-21T07:28:21.116Z,19.25
2018-06-21T07:30:18.604Z,19.17
2018-06-21T07:31:18.599Z,19.23
2018-06-21T07:33:14.495Z,19.20
2018-06-21T07:34:14.494Z,19.19
2018-06-21T07:36:10.955Z,19.16
2018-06-21T07:37:10.966Z,19.23
2018-06-21T07:39:06.464Z,19.43
2018-06-21T07:40:06.421Z,19.40
2018-06-21T07:42:05.878Z,19.46
2018-06-21T07:43:04.607Z,19.46
2018-06-21T07:45:03.047Z,19.27
2018-06-21T07:46:02.520Z,19.31
2018-06-21T07:48:00.487Z,19.27
2018-06-21T07:49:01.974Z,19.40
2018-06-21T07:50:58.959Z,19.49
2018-06-21T07:51:58.944Z,19.52
2018-06-21T07:53:56.481Z,19.56
2018-06-21T07:54:57.389Z,19.57
2018-06-21T07:56:54.951Z,19.67
2018-06-21T07:57:54.317Z,19.60
2018-06-21T07:59:53.294Z,19.70
2018-06-21T08:00:52.466Z,19.71
2018-06-21T08:02:50.427Z,19.67
2018-06-21T08:03:50.423Z,19.72
2018-06-21T08:05:48.856Z,19.79
2018-06-21T08:06:48.349Z,19.74
2018-06-21T08:08:49.825Z,19.70
2018-06-21T08:09:48.797Z,19.64
2018-06-21T08:11:50.789Z,19.86
2018-06-21T08:12:49.848Z,19.87
2018-06-21T08:14:47.743Z,19.97
2018-06-21T08:15:47.387Z,20.05
2018-06-21T08:17:45.852Z,20.00
2018-06-21T08:18:46.383Z,20.12
2018-06-21T08:20:42.863Z,20.15
2018-06-21T08:21:41.284Z,20.25
2018-06-21T08:23:40.253Z,20.32
2018-06-21T08:24:40.235Z,20.22
2018-06-21T08:26:37.908Z,20.07
2018-06-21T08:27:37.592Z,20.00
2018-06-21T08:29:35.530Z,19.98
2018-06-21T08:30:35.529Z,19.90
2018-06-21T08:32:36.524Z,20.00
2018-06-21T08:33:35.517Z,19.95
2018-06-21T08:35:32.019Z,19.97
2018-06-21T08:36:31.955Z,20.04
2018-06-21T08:38:30.418Z,20.15
2018-06-21T08:39:29.413Z,20.15
2018-06-21T08:41:29.885Z,20.05
2018-06-21T08:42:30.373Z,20.07
2018-06-21T08:44:29.339Z,20.11
2018-06-21T08:45:28.893Z,19.89
2018-06-21T08:47:26.937Z,19.78
2018-06-21T08:48:26.127Z,19.70
2018-06-21T08:50:24.119Z,19.71
2018-06-21T08:51:25.070Z,19.65
2018-06-21T08:53:22.624Z,19.63
2018-06-21T08:54:22.589Z,19.68
2018-06-21T08:56:20.507Z,19.78
2018-06-21T08:57:20.090Z,19.82
2018-06-21T08:59:22.499Z,20.05
2018-06-21T09:00:20.515Z,20.08
2018-06-21T09:02:16.410Z,20.07
2018-06-21T09:03:16.419Z,20.07
2018-06-21T09:05:15.386Z,20.12
2018-06-21T09:06:14.636Z,20.05
2018-06-21T09:08:11.600Z,20.12
2018-06-21T09:09:10.569Z,20.32
2018-06-21T09:11:10.993Z,20.30
2018-06-21T09:12:10.946Z,20.35
2018-06-21T09:14:10.040Z,20.29
2018-06-21T09:15:10.415Z,20.16
2018-06-21T09:17:08.022Z,19.95
2018-06-21T09:18:07.019Z,19.86
2018-06-21T09:20:05.993Z,19.75
2018-06-21T09:21:05.186Z,19.68
2018-06-21T09:23:05.645Z,19.86
2018-06-21T09:24:05.655Z,20.02
2018-06-21T09:26:05.134Z,20.20
2018-06-21T09:27:03.633Z,20.35
2018-06-21T09:29:04.177Z,20.08
2018-06-21T09:30:04.571Z,20.08
2018-06-21T09:32:07.151Z,20.32
2018-06-21T09:33:05.388Z,20.34
2018-06-21T09:35:06.387Z,20.32
2018-06-21T09:36:06.341Z,20.27
2018-06-21T09:38:06.323Z,20.32
2018-06-21T09:39:06.816Z,20.37
2018-06-21T09:41:02.286Z,20.64
2018-06-21T09:42:02.295Z,20.71
2018-06-21T09:44:03.830Z,20.96
2018-06-21T09:44:59.233Z,20.90
2018-06-21T09:46:57.254Z,20.76
2018-06-21T09:47:56.680Z,20.51
2018-06-21T09:49:57.145Z,19.89
2018-06-21T09:50:56.631Z,19.72
2018-06-21T09:52:55.428Z,19.45
2018-06-21T09:53:54.948Z,19.38
2018-06-21T09:55:55.214Z,19.19
2018-06-21T09:56:55.717Z,19.30
2018-06-21T09:58:51.233Z,19.50
2018-06-21T09:59:51.229Z,19.64
2018-06-21T10:01:49.353Z,19.82
2018-06-21T10:02:49.330Z,19.93
2018-06-21T10:04:45.864Z,20.08
2018-06-21T10:05:45.285Z,20.07
2018-06-21T10:07:43.320Z,20.53
2018-06-21T10:08:43.266Z,20.60
2018-06-21T10:10:41.373Z,20.35
2018-06-21T10:11:41.374Z,20.49
2018-06-21T10:13:43.497Z,20.58
2018-06-21T10:14:42.859Z,20.72
2018-06-21T10:16:42.317Z,21.01
2018-06-21T10:17:42.317Z,21.09
2018-06-21T10:19:40.786Z,20.97
2018-06-21T10:20:40.453Z,21.06
2018-06-21T10:22:42.913Z,20.90
2018-06-21T10:23:41.431Z,20.82
2018-06-21T10:25:37.856Z,20.67
2018-06-21T10:26:37.858Z,20.67
2018-06-21T10:28:36.341Z,20.90
2018-06-21T10:29:35.028Z,20.68
2018-06-21T10:31:30.823Z,20.61
2018-06-21T10:32:30.844Z,20.51
2018-06-21T10:34:29.286Z,20.38
2018-06-21T10:35:28.786Z,20.35
2018-06-21T10:37:29.309Z,20.60
2018-06-21T10:38:29.744Z,20.60
2018-06-21T10:40:31.318Z,20.67
2018-06-21T10:41:29.718Z,20.64
2018-06-21T10:43:27.925Z,20.16
2018-06-21T10:44:27.944Z,19.87
2018-06-21T10:46:26.838Z,19.56
2018-06-21T10:47:25.838Z,19.60
2018-06-21T10:49:26.424Z,19.78
2018-06-21T10:50:27.307Z,19.63
2018-06-21T10:52:23.169Z,19.97
2018-06-21T10:53:24.043Z,20.19
2018-06-21T10:55:21.617Z,20.08
2018-06-21T10:56:19.968Z,20.07
2018-06-21T10:58:19.471Z,20.16
2018-06-21T10:59:19.953Z,20.23
2018-06-21T11:01:19.536Z,20.26
2018-06-21T11:02:20.117Z,20.40
2018-06-21T11:04:15.559Z,20.34
2018-06-21T11:05:15.533Z,20.32
2018-06-21T11:07:16.421Z,20.32
2018-06-21T11:08:13.657Z,20.26
2018-06-21T11:10:15.280Z,20.51
2018-06-21T11:11:14.202Z,20.66
2018-06-21T11:13:15.117Z,20.49
2018-06-21T11:14:14.654Z,20.46
2018-06-21T11:16:16.590Z,20.79
2018-06-21T11:17:15.604Z,20.86
2018-06-21T11:19:13.557Z,20.51
2018-06-21T11:20:13.231Z,20.44
2018-06-21T11:22:15.721Z,20.34
2018-06-21T11:23:13.807Z,20.48
2018-06-21T11:25:19.296Z,20.41
2018-06-21T11:26:18.231Z,20.53
2018-06-21T11:28:22.740Z,20.49
2018-06-21T11:29:23.728Z,20.49
2018-06-21T11:31:28.667Z,20.29
2018-06-21T11:32:28.412Z,20.29
2018-06-21T11:34:29.340Z,20.25
2018-06-21T11:35:29.824Z,20.11
2018-06-21T11:37:30.822Z,19.87
2018-06-21T11:38:31.232Z,19.64
2018-06-21T11:40:31.532Z,19.71
2018-06-21T11:41:31.398Z,19.79
2018-06-21T11:43:37.102Z,20.07
2018-06-21T11:44:31.363Z,20.07
2018-06-21T11:46:27.561Z,20.05
2018-06-21T11:47:26.570Z,20.10
2018-06-21T11:49:30.066Z,19.98
2018-06-21T11:50:28.708Z,19.98
2018-06-21T11:52:36.534Z,19.89
2018-06-21T11:53:33.663Z,19.83
2018-06-21T11:55:31.132Z,19.92
2018-06-21T11:56:30.832Z,20.15
2018-06-21T11:58:31.359Z,20.18
2018-06-21T11:59:31.295Z,20.25
2018-06-21T12:01:31.960Z,20.18
2018-06-21T12:02:34.383Z,20.08
2018-06-21T12:04:32.729Z,20.12
2018-06-21T12:05:33.350Z,20.08
2018-06-21T12:07:29.666Z,20.00
2018-06-21T12:08:28.207Z,19.93
2018-06-21T12:10:32.661Z,19.92
2018-06-21T12:11:32.865Z,19.90
2018-06-21T12:13:30.095Z,20.20
2018-06-21T12:14:30.088Z,20.25
2018-06-21T12:16:42.233Z,20.04
2018-06-21T12:17:41.404Z,20.10
2018-06-21T12:19:47.430Z,20.10
2018-06-21T12:20:46.870Z,20.10
2018-06-21T12:22:43.323Z,20.42
2018-06-21T12:23:42.838Z,20.57
2018-06-21T12:25:41.751Z,20.83
2018-06-21T12:26:41.257Z,20.90
2018-06-21T12:28:41.283Z,20.94
2018-06-21T12:29:41.278Z,20.97
2018-06-21T12:31:43.186Z,20.72
2018-06-21T12:32:41.851Z,20.51
2018-06-21T12:34:42.160Z,20.01
2018-06-21T12:35:41.164Z,19.97
2018-06-21T12:37:37.464Z,20.10
2018-06-21T12:38:37.466Z,20.04
2018-06-21T12:40:52.512Z,20.22
2018-06-21T12:41:49.687Z,20.11
2018-06-21T12:43:52.346Z,20.07
2018-06-21T12:44:51.191Z,20.08
2018-06-21T12:46:50.262Z,20.07
2018-06-21T12:47:49.284Z,19.97
2018-06-21T12:49:47.453Z,19.98
2018-06-21T12:50:47.423Z,20.02
2018-06-21T12:52:47.208Z,20.40
2018-06-21T12:53:47.016Z,20.30
2018-06-21T12:55:50.091Z,20.04
2018-06-21T12:56:47.645Z,20.07
2018-06-21T12:59:52.085Z,20.05
2018-06-21T13:00:53.982Z,20.11
2018-06-21T13:02:51.826Z,20.07
2018-06-21T13:03:52.280Z,19.95
2018-06-21T13:06:12.806Z,20.07
2018-06-21T13:07:13.135Z,20.11
2018-06-21T13:09:12.295Z,20.12
2018-06-21T13:10:10.761Z,20.12
2018-06-21T13:12:14.824Z,20.26
2018-06-21T13:13:11.251Z,20.29
2018-06-21T13:15:11.980Z,20.64
2018-06-21T13:16:11.728Z,20.63
2018-06-21T13:18:11.771Z,20.53
2018-06-21T13:20:29.441Z,20.08
2018-06-21T13:21:28.304Z,20.08
2018-06-21T13:23:30.643Z,20.07
2018-06-21T13:24:29.028Z,20.07
2018-06-21T13:26:38.454Z,20.10
2018-06-21T13:29:07.938Z,19.85
2018-06-21T13:30:08.910Z,19.68
2018-06-21T13:32:08.420Z,19.42
2018-06-21T13:33:07.090Z,19.52
2018-06-21T13:35:09.122Z,19.60
2018-06-21T13:36:09.562Z,19.50
2018-06-21T13:38:20.160Z,19.55
2018-06-21T13:39:19.795Z,19.52
2018-06-21T13:41:20.102Z,19.28
2018-06-21T13:42:17.643Z,19.32
2018-06-21T13:44:18.812Z,19.37
2018-06-21T13:45:18.078Z,19.61
2018-06-21T13:47:18.583Z,20.01
2018-06-21T13:48:19.597Z,20.11
2018-06-21T13:50:16.606Z,20.27
2018-06-21T13:51:17.556Z,19.92
2018-06-21T13:53:20.570Z,19.85
2018-06-21T13:54:19.511Z,19.82
2018-06-21T13:56:21.322Z,19.75
2018-06-21T13:57:18.867Z,19.68
2018-06-21T13:59:23.292Z,19.52
2018-06-21T14:00:23.017Z,19.52
2018-06-21T14:02:26.496Z,19.55
2018-06-21T14:03:23.580Z,19.60
2018-06-21T14:05:26.526Z,19.47
2018-06-21T14:06:27.076Z,19.40
2018-06-21T14:08:31.704Z,19.57
2018-06-21T14:09:32.410Z,19.70
2018-06-21T14:11:31.905Z,19.86
2018-06-21T14:12:31.897Z,19.75
2018-06-21T14:14:36.445Z,19.87
2018-06-21T14:15:38.371Z,19.85
2018-06-21T14:17:40.893Z,19.80
2018-06-21T14:18:41.868Z,19.85
2018-06-21T14:20:43.868Z,19.93
2018-06-21T14:21:41.283Z,20.05
2018-06-21T14:23:39.821Z,19.95
2018-06-21T14:24:40.736Z,19.86
2018-06-21T14:26:44.742Z,19.75
2018-06-21T14:29:04.960Z,19.83
2018-06-21T14:30:04.473Z,19.71
2018-06-21T14:32:02.997Z,19.65
2018-06-21T14:34:23.277Z,19.50
2018-06-21T14:35:25.343Z,19.38
2018-06-21T14:37:24.936Z,19.37
2018-06-21T14:38:29.249Z,19.42
2018-06-21T14:40:21.751Z,19.65
2018-06-21T14:42:43.608Z,19.49
2018-06-21T14:43:37.669Z,19.68
2018-06-21T14:45:37.110Z,19.57
2018-06-21T14:46:37.069Z,19.65
2018-06-21T14:48:38.298Z,19.93
2018-06-21T14:49:38.319Z,19.90
2018-06-21T14:51:40.825Z,19.49
2018-06-21T14:52:39.758Z,19.46
2018-06-21T14:54:36.007Z,19.52
2018-06-21T14:55:35.537Z,19.60
2018-06-21T14:57:35.483Z,19.64
2018-06-21T14:58:36.409Z,19.71
2018-06-21T15:00:40.129Z,19.79
2018-06-21T15:01:36.891Z,19.67
2018-06-21T15:03:35.555Z,19.64
2018-06-21T15:04:32.683Z,19.65
2018-06-21T15:06:32.147Z,19.79
2018-06-21T15:07:32.240Z,19.57
2018-06-21T15:09:30.839Z,19.34
2018-06-21T15:10:29.566Z,19.34
2018-06-21T15:12:31.994Z,19.13
2018-06-21T15:13:30.025Z,19.19
2018-06-21T15:15:31.316Z,19.10
2018-06-21T15:16:29.813Z,19.10
2018-06-21T15:18:29.813Z,19.15
2018-06-21T15:19:27.956Z,19.09
2018-06-21T15:21:27.412Z,19.23
2018-06-21T15:22:26.690Z,19.35
2018-06-21T15:24:30.555Z,19.47
2018-06-21T15:25:30.599Z,19.57
2018-06-21T15:27:29.534Z,19.80
2018-06-21T15:28:29.033Z,19.78
2018-06-21T15:30:26.949Z,19.28
2018-06-21T15:32:41.474Z,19.23
2018-06-21T15:34:57.851Z,18.91
2018-06-21T15:37:17.013Z,19.06
2018-06-21T15:38:16.276Z,19.12
2018-06-21T15:40:12.319Z,19.17
2018-06-21T15:41:12.617Z,19.28
2018-06-21T15:43:10.052Z,19.30
2018-06-21T15:44:10.201Z,19.40
2018-06-21T15:46:10.532Z,19.13
2018-06-21T15:47:10.533Z,19.02
2018-06-21T15:49:08.572Z,19.15
2018-06-21T15:50:08.509Z,18.94
2018-06-21T15:52:08.009Z,18.76
2018-06-21T15:53:06.602Z,18.74
2018-06-21T15:55:03.561Z,18.96
2018-06-21T15:56:03.568Z,19.05
2018-06-21T15:57:59.038Z,18.78
2018-06-21T15:59:00.039Z,18.79
2018-06-21T16:00:54.526Z,18.78
2018-06-21T16:01:54.453Z,18.63
2018-06-21T16:03:52.933Z,18.50
2018-06-21T16:04:52.593Z,18.60
2018-06-21T16:06:50.776Z,18.81
2018-06-21T16:07:50.755Z,18.84
2018-06-21T16:11:31.482Z,18.81
2018-06-21T16:12:31.312Z,18.75
2018-06-21T16:14:27.254Z,18.69
2018-06-21T16:15:28.774Z,18.65
2018-06-21T16:17:25.248Z,18.63
2018-06-21T16:18:25.251Z,18.61
2018-06-21T16:20:21.209Z,18.68
2018-06-21T16:21:21.208Z,18.66
2018-06-21T16:23:19.175Z,18.82
2018-06-21T16:24:19.124Z,18.87
2018-06-21T16:26:19.590Z,19.13
2018-06-21T16:27:19.648Z,18.89
2018-06-21T16:29:21.050Z,18.71
2018-06-21T16:30:20.091Z,18.71
2018-06-21T16:32:16.103Z,18.68
2018-06-21T16:33:16.027Z,18.63
2018-06-21T16:35:18.495Z,18.65
2018-06-21T16:36:16.472Z,18.66
2018-06-21T16:38:14.406Z,18.44
2018-06-21T16:39:14.415Z,18.39
2018-06-21T16:41:12.356Z,18.02
2018-06-21T16:42:12.350Z,18.05
2018-06-21T16:44:08.311Z,17.98
2018-06-21T16:45:08.303Z,18.36
2018-06-21T16:47:06.778Z,19.15
2018-06-21T16:48:06.282Z,19.42
2018-06-21T16:50:02.217Z,20.08
2018-06-21T16:51:02.799Z,20.35
2018-06-21T16:53:00.193Z,21.22
2018-06-21T16:54:01.224Z,21.52
2018-06-21T16:55:58.660Z,21.92
2018-06-21T16:56:58.311Z,21.94
2018-06-21T16:58:54.304Z,21.64
2018-06-21T16:59:54.254Z,21.09
2018-06-21T17:01:50.713Z,19.92
2018-06-21T17:02:50.180Z,19.60
2018-06-21T17:04:47.175Z,18.99
2018-06-21T17:05:47.136Z,18.79
2018-06-21T17:07:58.867Z,18.59
2018-06-21T17:08:58.925Z,18.60
2018-06-21T17:11:00.936Z,18.63
2018-06-21T17:12:02.409Z,18.61
2018-06-21T17:14:00.807Z,18.56
2018-06-21T17:15:01.014Z,18.39
2018-06-21T17:17:03.024Z,18.23
2018-06-21T17:19:48.791Z,18.39
2018-06-21T17:20:45.951Z,18.34
2018-06-21T17:23:02.469Z,18.14
2018-06-21T17:24:16.131Z,18.14
2018-06-21T17:26:02.231Z,18.02
2018-06-21T17:27:00.715Z,17.92
2018-06-21T17:29:07.846Z,17.95
2018-06-21T17:30:04.826Z,17.88
2018-06-21T17:32:15.126Z,17.81
2018-06-21T17:33:15.669Z,17.79
2018-06-21T17:35:29.907Z,17.83
2018-06-21T17:37:08.121Z,17.71
2018-06-21T17:38:29.088Z,17.71
2018-06-21T17:39:41.582Z,17.74
2018-06-21T17:41:42.721Z,17.83
2018-06-21T17:42:57.062Z,17.81
2018-06-21T17:45:11.925Z,17.60
2018-06-21T17:46:37.484Z,17.60
2018-06-21T17:48:10.011Z,17.50
2018-06-21T17:49:09.824Z,17.55
2018-06-21T17:51:11.721Z,17.68
2018-06-21T17:52:10.280Z,17.68
2018-06-21T17:54:55.606Z,17.66
2018-06-21T17:55:38.188Z,17.58
2018-06-21T17:57:41.635Z,17.39
2018-06-21T17:58:41.258Z,17.32
2018-06-21T18:00:40.177Z,17.25
2018-06-21T18:01:39.175Z,17.27
2018-06-21T18:03:39.849Z,17.18
2018-06-21T18:04:40.139Z,17.21
2018-06-21T18:06:40.132Z,17.18
2018-06-21T18:07:40.099Z,17.17
2018-06-21T18:09:43.617Z,17.12
2018-06-21T18:10:40.754Z,17.03
2018-06-21T18:12:41.018Z,17.18
2018-06-21T18:13:38.697Z,17.20
2018-06-21T18:15:39.257Z,17.20
2018-06-21T18:16:40.139Z,17.18
2018-06-21T18:18:38.128Z,17.18
2018-06-21T18:19:37.198Z,17.21
2018-06-21T18:21:41.359Z,17.32
2018-06-21T18:22:39.192Z,17.32
2018-06-21T18:24:35.005Z,17.28
2018-06-21T18:27:00.330Z,17.13
2018-06-21T18:28:00.824Z,17.21
2018-06-21T18:30:01.520Z,17.15
2018-06-21T18:31:00.724Z,17.09
2018-06-21T18:34:46.088Z,17.03
2018-06-21T18:35:45.051Z,17.06
2018-06-21T18:37:41.429Z,17.10
2018-06-21T18:38:41.924Z,17.09
2018-06-21T18:40:41.427Z,17.12
2018-06-21T18:41:41.375Z,17.17
2018-06-21T18:43:42.458Z,17.09
2018-06-21T18:44:41.833Z,17.13
2018-06-21T18:46:40.831Z,17.09
2018-06-21T18:47:39.970Z,17.03
2018-06-21T18:49:40.466Z,17.09
2018-06-21T18:50:40.983Z,17.06
2018-06-21T18:52:40.967Z,17.03
2018-06-21T18:53:41.897Z,16.95
2018-06-21T18:55:39.351Z,16.95
2018-06-21T18:56:39.010Z,16.91
2018-06-21T18:58:35.512Z,16.91
2018-06-21T18:59:58.819Z,16.81
2018-06-21T19:01:50.143Z,16.66
2018-06-21T19:02:43.127Z,16.59
2018-06-21T19:04:44.141Z,16.55
2018-06-21T19:05:43.119Z,16.58
2018-06-21T19:07:45.548Z,16.51
2018-06-21T19:08:44.451Z,16.51
2018-06-21T19:11:06.427Z,16.44
2018-06-21T19:12:06.918Z,16.34
2018-06-21T19:14:09.179Z,16.37
2018-06-21T19:15:06.474Z,16.34
2018-06-21T19:17:15.279Z,16.29
2018-06-21T19:19:43.251Z,16.22
2018-06-21T19:20:41.805Z,16.27
2018-06-21T19:22:53.460Z,16.27
2018-06-21T19:23:53.750Z,16.27
2018-06-21T19:25:54.682Z,16.21
2018-06-21T19:26:53.595Z,16.16
2018-06-21T19:28:52.037Z,16.11
2018-06-21T19:30:11.005Z,16.07
2018-06-21T19:32:09.455Z,15.96
2018-06-21T19:33:21.460Z,16.00
2018-06-21T19:35:04.438Z,15.95
2018-06-21T19:36:02.937Z,15.89
2018-06-21T19:38:06.149Z,15.81
2018-06-21T19:39:03.249Z,15.84
2018-06-21T19:41:04.601Z,15.73
2018-06-21T19:42:04.606Z,15.74
2018-06-21T19:44:00.073Z,15.70
2018-06-21T19:44:59.568Z,15.65
2018-06-21T19:47:02.833Z,15.60
2018-06-21T19:48:00.983Z,15.60
2018-06-21T19:49:59.123Z,15.44
2018-06-21T19:51:00.032Z,15.51
2018-06-21T19:52:57.052Z,15.45
2018-06-21T19:53:57.049Z,15.51
2018-06-21T19:55:59.056Z,15.38
2018-06-21T19:56:58.065Z,15.44
2018-06-21T19:59:01.982Z,15.37
2018-06-21T20:00:01.527Z,15.34
2018-06-21T20:02:00.930Z,15.40
2018-06-21T20:03:00.637Z,15.41
2018-06-21T20:05:01.060Z,15.33
2018-06-21T20:06:00.074Z,15.37
2018-06-21T20:08:02.549Z,15.22
2018-06-21T20:09:02.520Z,15.26
2018-06-21T20:11:03.009Z,15.22
2018-06-21T20:12:02.951Z,15.20
2018-06-21T20:14:03.455Z,15.19
2018-06-21T20:15:03.392Z,15.18
2018-06-21T20:17:04.355Z,15.04
2018-06-21T20:18:06.352Z,15.05
2018-06-21T20:20:04.806Z,15.12
2018-06-21T20:21:04.287Z,15.08
2018-06-21T20:23:05.285Z,15.08
2018-06-21T20:24:05.736Z,15.07
2018-06-21T20:26:06.792Z,15.05
2018-06-21T20:27:05.235Z,15.01
2018-06-21T20:29:06.197Z,15.00
2018-06-21T20:30:07.183Z,14.98
2018-06-21T20:32:07.641Z,14.94
2018-06-21T20:33:08.668Z,14.94
2018-06-21T20:35:08.615Z,14.95
2018-06-21T20:36:09.565Z,14.97
2018-06-21T20:38:08.069Z,14.80
2018-06-21T20:39:07.566Z,14.77
2018-06-21T20:41:02.705Z,14.77
2018-06-21T20:42:02.689Z,14.85
2018-06-21T20:44:03.650Z,14.79
2018-06-21T20:45:03.645Z,14.82
2018-06-21T20:47:04.096Z,14.74
2018-06-21T20:48:03.590Z,14.63
2018-06-21T20:50:04.537Z,14.79
2018-06-21T20:51:05.088Z,14.74
2018-06-21T20:53:05.075Z,14.70
2018-06-21T20:54:04.496Z,14.56
2018-06-21T20:56:05.017Z,14.56